createdAt,value
2018-12-04T00:00:43.734Z,99661.14
2018-12-04T00:03:13.126Z,99664.33
2018-12-04T00:05:42.399Z,99662.31
2018-12-04T00:08:11.601Z,99664.49
2018-12-04T00:10:41.059Z,99671.11
2018-12-04T00:13:10.225Z,99672.60
2018-12-04T00:15:39.535Z,99676.71
2018-12-04T00:18:08.729Z,99677.83
2018-12-04T00:20:38.450Z,99680.45
2018-12-04T00:23:07.847Z,99679.30
2018-12-04T00:25:37.192Z,99687.05
2018-12-04T00:28:06.644Z,99688.94
2018-12-04T00:30:35.730Z,99687.27
2018-12-04T00:33:04.963Z,99688.89
2018-12-04T00:35:34.517Z,99695.75
2018-12-04T00:38:03.756Z,99693.95
2018-12-04T00:40:33.405Z,99697.04
2018-12-04T00:43:02.530Z,99700.36
2018-12-04T00:45:31.686Z,99707.43
2018-12-04T00:48:00.809Z,99714.23
2018-12-04T00:50:29.946Z,99709.29
2018-12-04T00:52:59.069Z,99718.06
2018-12-04T00:55:38.709Z,99719.84
2018-12-04T00:58:08.063Z,99721.98
2018-12-04T01:00:37.611Z,99732.21
2018-12-04T01:03:06.737Z,99734.31
2018-12-04T01:05:36.266Z,99740.16
2018-12-04T01:08:05.413Z,99729.54
2018-12-04T01:10:34.561Z,99734.75
2018-12-04T01:13:03.970Z,99734.90
2018-12-04T01:15:33.202Z,99739.23
2018-12-04T01:18:02.521Z,99737.42
2018-12-04T01:20:31.716Z,99733.86
2018-12-04T01:23:01.388Z,99738.68
2018-12-04T01:25:30.688Z,99734.45
2018-12-04T01:28:00.166Z,99735.70
2018-12-04T01:30:29.392Z,99739.96
2018-12-04T01:32:59.305Z,99739.73
2018-12-04T01:35:28.449Z,99744.42
2018-12-04T01:37:57.641Z,99750.59
2018-12-04T01:40:27.022Z,99746.32
2018-12-04T01:42:56.186Z,99755.42
2018-12-04T01:45:25.430Z,99752.04
2018-12-04T01:47:55.012Z,99750.20
2018-12-04T01:50:24.105Z,99746.21
2018-12-04T01:52:53.246Z,99747.56
2018-12-04T01:55:22.802Z,99747.05
2018-12-04T01:57:52.260Z,99747.58
2018-12-04T02:00:21.487Z,99749.31
2018-12-04T02:02:50.965Z,99749.85
2018-12-04T02:05:20.162Z,99747.63
2018-12-04T02:07:49.349Z,99772.73
2018-12-04T02:10:18.624Z,99749.31
2018-12-04T02:12:48.156Z,99747.94
2018-12-04T02:15:17.501Z,99750.34
2018-12-04T02:17:46.697Z,99745.92
2018-12-04T02:20:15.855Z,99747.38
2018-12-04T02:22:45.029Z,99761.19
2018-12-04T02:25:14.225Z,99755.33
2018-12-04T02:27:43.812Z,99757.37
2018-12-04T02:30:19.781Z,99766.81
2018-12-04T02:32:48.899Z,99759.06
2018-12-04T02:35:18.043Z,99767.05
2018-12-04T02:37:47.499Z,99781.66
2018-12-04T02:40:16.723Z,99777.27
2018-12-04T02:42:46.141Z,99775.53
2018-12-04T02:45:15.522Z,99789.29
2018-12-04T02:47:44.776Z,99798.39
2018-12-04T02:50:13.940Z,99796.84
2018-12-04T02:52:43.364Z,99800.48
2018-12-04T02:55:12.544Z,99810.10
2018-12-04T02:57:41.847Z,99810.67
2018-12-04T03:00:11.221Z,99819.33
2018-12-04T03:02:40.951Z,99833.23
2018-12-04T03:05:10.180Z,99843.89
2018-12-04T03:07:39.556Z,99861.98
2018-12-04T03:10:09.116Z,99867.02
2018-12-04T03:12:38.723Z,99868.26
2018-12-04T03:15:08.257Z,99889.96
2018-12-04T03:17:37.728Z,99901.13
2018-12-04T03:20:07.058Z,99896.14
2018-12-04T03:22:37.541Z,99914.63
2018-12-04T03:25:08.048Z,99923.23
2018-12-04T03:27:37.200Z,99939.12
2018-12-04T03:30:06.801Z,99945.09
2018-12-04T03:32:36.215Z,99954.13
2018-12-04T03:35:05.727Z,99960.55
2018-12-04T03:37:34.857Z,99960.12
2018-12-04T03:40:04.987Z,99972.59
2018-12-04T03:42:34.238Z,99982.44
2018-12-04T03:45:03.757Z,99986.72
2018-12-04T03:47:32.967Z,99997.45
2018-12-04T03:50:02.149Z,100003.37
2018-12-04T03:52:31.309Z,100012.38
2018-12-04T03:55:00.540Z,100015.41
2018-12-04T03:57:29.666Z,100020.96
2018-12-04T03:59:59.153Z,100026.19
2018-12-04T04:02:28.445Z,100043.24
2018-12-04T04:04:57.584Z,100053.61
2018-12-04T04:07:27.446Z,100054.82
2018-12-04T04:09:56.846Z,100059.17
2018-12-04T04:12:26.248Z,100070.70
2018-12-04T04:14:55.457Z,100072.48
2018-12-04T04:17:24.856Z,100078.08
2018-12-04T04:19:54.341Z,100074.19
2018-12-04T04:22:23.886Z,100082.27
2018-12-04T04:24:53.084Z,100097.70
2018-12-04T04:27:22.388Z,100098.63
2018-12-04T04:29:51.623Z,100113.55
2018-12-04T04:32:20.804Z,100116.68
2018-12-04T04:34:50.429Z,100120.92
2018-12-04T04:37:19.584Z,100129.11
2018-12-04T04:39:48.880Z,100137.16
2018-12-04T04:42:18.099Z,100144.15
2018-12-04T04:44:47.987Z,100146.80
2018-12-04T04:47:17.604Z,100164.27
2018-12-04T04:49:46.849Z,100166.80
2018-12-04T04:52:16.239Z,100167.30
2018-12-04T04:54:45.833Z,100175.72
2018-12-04T04:57:15.245Z,100182.27
2018-12-04T04:59:44.424Z,100191.61
2018-12-04T05:02:13.691Z,100195.41
2018-12-04T05:04:42.896Z,100201.89
2018-12-04T05:07:12.077Z,100208.38
2018-12-04T05:09:41.484Z,100215.09
2018-12-04T05:12:10.615Z,100217.73
2018-12-04T05:14:39.939Z,100229.61
2018-12-04T05:17:09.094Z,100237.60
2018-12-04T05:19:38.268Z,100238.41
2018-12-04T05:22:07.692Z,100252.75
2018-12-04T05:24:36.841Z,100259.02
2018-12-04T05:27:06.094Z,100268.28
2018-12-04T05:29:35.396Z,100280.19
2018-12-04T05:32:04.607Z,100284.39
2018-12-04T05:34:33.767Z,100302.78
2018-12-04T05:37:03.198Z,100300.40
2018-12-04T05:39:32.373Z,100308.87
2018-12-04T05:42:01.505Z,100311.77
2018-12-04T05:44:30.744Z,100314.98
2018-12-04T05:46:59.964Z,100331.17
2018-12-04T05:49:29.489Z,100338.95
2018-12-04T05:51:59.086Z,100339.00
2018-12-04T05:54:28.425Z,100338.45
2018-12-04T05:56:57.619Z,100349.55
2018-12-04T05:59:27.146Z,100365.13
2018-12-04T06:01:56.797Z,100365.98
2018-12-04T06:04:26.207Z,100379.40
2018-12-04T06:06:55.336Z,100387.09
2018-12-04T06:09:24.861Z,100394.66
2018-12-04T06:11:54.038Z,100387.52
2018-12-04T06:14:23.422Z,100405.19
2018-12-04T06:16:52.557Z,100411.78
2018-12-04T06:19:21.926Z,100414.69
2018-12-04T06:21:51.071Z,100424.17
2018-12-04T06:24:20.577Z,100423.31
2018-12-04T06:26:49.759Z,100435.66
2018-12-04T06:29:19.152Z,100437.43
2018-12-04T06:31:48.811Z,100434.72
2018-12-04T06:34:18.184Z,100446.11
2018-12-04T06:36:47.370Z,100458.78
2018-12-04T06:39:16.547Z,100466.12
2018-12-04T06:41:45.787Z,100474.17
2018-12-04T06:44:15.202Z,100484.42
2018-12-04T06:46:44.436Z,100487.95
2018-12-04T06:49:14.198Z,100506.19
2018-12-04T06:51:43.548Z,100503.12
2018-12-04T06:54:12.960Z,100509.60
2018-12-04T06:56:42.300Z,100519.63
2018-12-04T06:59:11.487Z,100530.20
2018-12-04T07:01:40.984Z,100537.39
2018-12-04T07:04:10.411Z,100545.95
2018-12-04T07:06:39.651Z,100549.94
2018-12-04T07:09:09.440Z,100562.11
2018-12-04T07:11:38.613Z,100568.66
2018-12-04T07:14:08.132Z,100571.91
2018-12-04T07:16:37.419Z,100585.48
2018-12-04T07:19:06.847Z,100592.90
2018-12-04T07:21:36.045Z,100589.84
2018-12-04T07:24:05.336Z,100595.69
2018-12-04T07:26:35.116Z,100606.25
2018-12-04T07:29:04.332Z,100615.80
2018-12-04T07:31:33.849Z,100624.05
2018-12-04T07:34:03.151Z,100632.53
2018-12-04T07:36:32.380Z,100646.75
2018-12-04T07:39:01.663Z,100644.73
2018-12-04T07:41:31.165Z,100653.72
2018-12-04T07:44:00.475Z,100658.86
2018-12-04T07:46:30.074Z,100669.70
2018-12-04T07:48:59.451Z,100674.54
2018-12-04T07:51:28.774Z,100678.22
2018-12-04T07:53:58.143Z,100698.66
2018-12-04T07:56:27.272Z,100700.57
2018-12-04T07:58:56.801Z,100707.56
2018-12-04T08:01:26.562Z,100714.71
2018-12-04T08:03:55.808Z,100724.13
2018-12-04T08:06:25.336Z,100726.31
2018-12-04T08:08:54.776Z,100736.85
2018-12-04T08:11:24.126Z,100742.22
2018-12-04T08:13:53.865Z,100751.67
2018-12-04T08:16:23.529Z,100758.02
2018-12-04T08:18:52.785Z,100756.42
2018-12-04T08:21:22.002Z,100761.99
2018-12-04T08:23:51.443Z,100764.52
2018-12-04T08:26:20.693Z,100765.65
2018-12-04T08:28:50.420Z,100772.41
2018-12-04T08:31:19.802Z,100777.30
2018-12-04T08:33:49.028Z,100782.50
2018-12-04T08:36:18.228Z,100787.84
2018-12-04T08:38:47.811Z,100797.39
2018-12-04T08:41:16.977Z,100795.73
2018-12-04T08:43:46.314Z,100806.11
2018-12-04T08:46:15.794Z,100816.15
2018-12-04T08:48:45.146Z,100820.23
2018-12-04T08:51:14.760Z,100829.38
2018-12-04T08:53:43.861Z,100829.56
2018-12-04T08:56:13.243Z,100827.84
2018-12-04T08:58:42.705Z,100841.05
2018-12-04T09:01:11.792Z,100849.12
2018-12-04T09:03:41.312Z,100853.41
2018-12-04T09:06:12.200Z,100858.13
2018-12-04T09:08:41.658Z,100861.84
2018-12-04T09:11:11.079Z,100874.45
2018-12-04T09:13:40.401Z,100882.70
2018-12-04T09:16:09.937Z,100885.14
2018-12-04T09:18:39.058Z,100901.90
2018-12-04T09:21:08.284Z,100902.86
2018-12-04T09:23:37.805Z,100901.03
2018-12-04T09:26:07.155Z,100910.12
2018-12-04T09:28:36.878Z,100921.97
2018-12-04T09:31:06.617Z,100919.97
2018-12-04T09:33:35.926Z,100925.55
2018-12-04T09:36:05.256Z,100926.69
2018-12-04T09:38:34.421Z,100928.08
2018-12-04T09:41:03.685Z,100935.32
2018-12-04T09:43:32.957Z,100939.52
2018-12-04T09:46:02.136Z,100933.23
2018-12-04T09:48:31.339Z,100943.06
2018-12-04T09:51:00.593Z,100946.30
2018-12-04T09:53:29.932Z,100949.00
2018-12-04T09:55:59.106Z,100952.21
2018-12-04T09:58:28.354Z,100957.88
2018-12-04T10:00:57.540Z,100953.49
2018-12-04T10:03:26.789Z,100961.96
2018-12-04T10:05:56.257Z,100955.59
2018-12-04T10:08:25.694Z,100960.20
2018-12-04T10:10:54.890Z,100960.70
2018-12-04T10:13:24.499Z,100960.42
2018-12-04T10:15:53.868Z,100969.52
2018-12-04T10:18:23.191Z,100980.11
2018-12-04T10:21:04.127Z,100970.23
2018-12-04T10:23:33.306Z,100965.70
2018-12-04T10:26:02.468Z,100976.89
2018-12-04T10:28:31.790Z,100986.95
2018-12-04T10:31:12.079Z,100993.13
2018-12-04T10:33:41.314Z,100992.00
2018-12-04T10:36:10.565Z,101003.23
2018-12-04T10:38:40.976Z,101011.97
2018-12-04T10:41:10.668Z,101013.05
2018-12-04T10:43:40.186Z,101012.24
2018-12-04T10:46:10.603Z,101027.23
2018-12-04T10:48:40.752Z,101026.71
2018-12-04T10:51:10.019Z,101022.20
2018-12-04T10:53:39.425Z,101026.59
2018-12-04T10:56:08.840Z,101031.73
2018-12-04T10:58:38.357Z,101031.53
2018-12-04T11:01:13.098Z,101033.92
2018-12-04T11:03:42.960Z,101033.47
2018-12-04T11:06:12.311Z,101039.50
2018-12-04T11:08:41.509Z,101041.86
2018-12-04T11:11:10.886Z,101046.05
2018-12-04T11:13:40.031Z,101044.59
2018-12-04T11:16:09.308Z,101053.50
2018-12-04T11:18:38.726Z,101053.13
2018-12-04T11:21:08.073Z,101054.20
2018-12-04T11:23:37.558Z,101059.75
2018-12-04T11:26:07.028Z,101059.75
2018-12-04T11:28:36.280Z,101066.30
2018-12-04T11:31:05.870Z,101070.09
2018-12-04T11:33:35.070Z,101070.09
2018-12-04T11:36:04.281Z,101078.89
2018-12-04T11:38:33.575Z,101087.23
2018-12-04T11:41:02.971Z,101088.10
2018-12-04T11:43:32.192Z,101096.01
2018-12-04T11:46:01.660Z,101107.07
2018-12-04T11:48:31.226Z,101107.71
2018-12-04T11:51:00.957Z,101112.80
2018-12-04T11:53:30.381Z,101114.71
2018-12-04T11:55:59.621Z,101129.74
2018-12-04T11:58:29.091Z,101128.37
2018-12-04T12:00:58.408Z,101131.98
2018-12-04T12:03:27.708Z,101140.55
2018-12-04T12:05:57.496Z,101140.48
2018-12-04T12:08:27.142Z,101140.89
2018-12-04T12:10:56.868Z,101149.25
2018-12-04T12:13:26.342Z,101148.16
2018-12-04T12:15:55.502Z,101150.58
2018-12-04T12:18:24.828Z,101153.43
2018-12-04T12:20:54.174Z,101150.97
2018-12-04T12:23:23.590Z,101154.31
2018-12-04T12:25:52.773Z,101153.05
2018-12-04T12:28:21.921Z,101156.84
2018-12-04T12:30:51.415Z,101170.72
2018-12-04T12:33:20.632Z,101165.53
2018-12-04T12:35:50.404Z,101172.92
2018-12-04T12:38:19.706Z,101178.92
2018-12-04T12:40:48.903Z,101180.16
2018-12-04T12:43:18.293Z,101181.94
2018-12-04T12:45:47.550Z,101183.03
2018-12-04T12:48:16.767Z,101182.73
2018-12-04T12:50:46.319Z,101185.64
2018-12-04T12:53:15.898Z,101188.31
2018-12-04T12:55:45.100Z,101188.95
2018-12-04T12:58:14.566Z,101191.98
2018-12-04T13:00:44.033Z,101206.70
2018-12-04T13:03:13.825Z,101206.18
2018-12-04T13:05:43.046Z,101208.43
2018-12-04T13:08:12.194Z,101213.20
2018-12-04T13:10:41.427Z,101213.57
2018-12-04T13:13:10.829Z,101212.97
2018-12-04T13:15:40.016Z,101223.61
2018-12-04T13:18:09.142Z,101229.13
2018-12-04T13:20:38.476Z,101235.50
2018-12-04T13:23:07.775Z,101241.23
2018-12-04T13:25:37.133Z,101250.66
2018-12-04T13:28:06.694Z,101252.59
2018-12-04T13:30:36.083Z,101257.17
2018-12-04T13:33:05.457Z,101273.50
2018-12-04T13:35:34.777Z,101285.83
2018-12-04T13:38:04.350Z,101288.40
2018-12-04T13:40:33.572Z,101292.48
2018-12-04T13:43:03.068Z,101289.77
2018-12-04T13:45:32.431Z,101293.70
2018-12-04T13:48:02.023Z,101301.25
2018-12-04T13:50:31.552Z,101307.69
2018-12-04T13:53:00.818Z,101310.52
2018-12-04T13:55:30.254Z,101319.39
2018-12-04T13:57:59.665Z,101313.17
2018-12-04T14:00:28.960Z,101319.52
2018-12-04T14:02:58.276Z,101322.58
2018-12-04T14:05:28.067Z,101330.09
2018-12-04T14:07:57.319Z,101335.79
2018-12-04T14:10:26.669Z,101342.06
2018-12-04T14:12:55.871Z,101346.43
2018-12-04T14:15:25.589Z,101356.88
2018-12-04T14:17:56.495Z,101360.08
2018-12-04T14:20:25.753Z,101366.55
2018-12-04T14:22:55.159Z,101374.73
2018-12-04T14:25:24.661Z,101387.36
2018-12-04T14:27:53.828Z,101386.80
2018-12-04T14:30:23.310Z,101391.50
2018-12-04T14:32:52.762Z,101407.31
2018-12-04T14:35:22.031Z,101414.78
2018-12-04T14:37:51.286Z,101407.95
2018-12-04T14:40:20.408Z,101415.00
2018-12-04T14:42:51.537Z,101416.79
2018-12-04T14:45:20.910Z,101428.25
2018-12-04T14:47:50.391Z,101439.58
2018-12-04T14:50:20.196Z,101438.60
2018-12-04T14:52:49.432Z,101438.03
2018-12-04T14:55:18.612Z,101449.50
2018-12-04T14:57:47.939Z,101454.85
2018-12-04T15:00:17.282Z,101456.13
2018-12-04T15:02:46.642Z,101458.61
2018-12-04T15:05:16.073Z,101461.55
2018-12-04T15:07:45.757Z,101473.02
2018-12-04T15:10:15.074Z,101475.33
2018-12-04T15:12:44.571Z,101496.38
2018-12-04T15:15:13.957Z,101495.54
2018-12-04T15:17:43.600Z,101503.30
2018-12-04T15:20:12.856Z,101504.07
2018-12-04T15:22:42.027Z,101511.23
2018-12-04T15:25:11.160Z,101516.97
2018-12-04T15:27:40.483Z,101519.44
2018-12-04T15:30:10.008Z,101522.02
2018-12-04T15:32:39.283Z,101521.63
2018-12-04T15:35:08.806Z,101532.02
2018-12-04T15:37:38.009Z,101534.06
2018-12-04T15:40:08.485Z,101540.64
2018-12-04T15:42:37.846Z,101549.66
2018-12-04T15:45:07.795Z,101555.30
2018-12-04T15:47:37.011Z,101553.88
2018-12-04T15:50:08.096Z,101559.52
2018-12-04T15:52:37.478Z,101557.61
2018-12-04T15:55:06.958Z,101563.59
2018-12-04T15:57:36.283Z,101567.45
2018-12-04T16:00:09.174Z,101576.66
2018-12-04T16:02:38.758Z,101581.69
2018-12-04T16:05:10.083Z,101577.02
2018-12-04T16:07:39.454Z,101586.09
2018-12-04T16:10:12.570Z,101588.11
2018-12-04T16:12:41.758Z,101593.66
2018-12-04T16:15:10.974Z,101598.09
2018-12-04T16:17:40.217Z,101605.23
2018-12-04T16:20:09.571Z,101603.13
2018-12-04T16:22:38.884Z,101603.92
2018-12-04T16:25:09.559Z,101609.47
2018-12-04T16:27:39.055Z,101615.45
2018-12-04T16:30:10.235Z,101626.20
2018-12-04T16:32:39.474Z,101635.88
2018-12-04T16:35:09.676Z,101637.22
2018-12-04T16:37:38.993Z,101646.81
2018-12-04T16:40:09.150Z,101650.71
2018-12-04T16:42:38.364Z,101656.06
2018-12-04T16:45:08.994Z,101661.23
2018-12-04T16:47:38.226Z,101676.16
2018-12-04T16:50:07.729Z,101665.59
2018-12-04T16:52:37.119Z,101665.59
2018-12-04T16:55:07.273Z,101681.92
2018-12-04T16:57:36.538Z,101694.11
2018-12-04T17:00:08.485Z,101687.33
2018-12-04T17:02:37.614Z,101692.99
2018-12-04T17:05:07.150Z,101691.53
2018-12-04T17:07:36.284Z,101705.42
2018-12-04T17:10:07.445Z,101701.41
2018-12-04T17:12:36.595Z,101708.67
2018-12-04T17:15:06.927Z,101718.01
2018-12-04T17:17:36.477Z,101718.47
2018-12-04T17:20:06.975Z,101719.04
2018-12-04T17:22:36.316Z,101731.45
2018-12-04T17:25:05.910Z,101736.77
2018-12-04T17:27:35.071Z,101732.34
2018-12-04T17:30:04.772Z,101736.50
2018-12-04T17:32:34.323Z,101730.70
2018-12-04T17:36:06.701Z,101736.90
2018-12-04T17:38:35.807Z,101736.16
2018-12-04T17:41:05.039Z,101738.29
2018-12-04T17:43:34.526Z,101747.48
2018-12-04T17:46:03.715Z,101760.17
2018-12-04T17:48:32.873Z,101751.83
2018-12-04T17:51:02.493Z,101755.95
2018-12-04T17:53:31.810Z,101755.87
2018-12-04T17:56:00.986Z,101760.08
2018-12-04T17:58:30.132Z,101754.57
2018-12-04T18:00:59.837Z,101769.34
2018-12-04T18:03:29.494Z,101760.09
2018-12-04T18:05:58.962Z,101767.03
2018-12-04T18:08:28.464Z,101774.00
2018-12-04T18:10:57.743Z,101775.95
2018-12-04T18:13:26.995Z,101780.18
2018-12-04T18:15:56.288Z,101786.34
2018-12-04T18:18:25.537Z,101788.33
2018-12-04T18:20:55.141Z,101785.87
2018-12-04T18:23:24.420Z,101797.06
2018-12-04T18:25:53.556Z,101798.69
2018-12-04T18:28:22.725Z,101806.79
2018-12-04T18:30:51.969Z,101808.95
2018-12-04T18:33:21.905Z,101808.77
2018-12-04T18:35:51.479Z,101812.64
2018-12-04T18:38:20.830Z,101820.83
2018-12-04T18:40:49.929Z,101817.14
2018-12-04T18:43:19.273Z,101826.00
2018-12-04T18:45:48.351Z,101820.02
2018-12-04T18:48:17.662Z,101817.86
2018-12-04T18:50:47.018Z,101820.88
2018-12-04T18:53:16.390Z,101819.14
2018-12-04T18:55:45.756Z,101818.16
2018-12-04T18:58:15.093Z,101824.28
2018-12-04T19:00:44.194Z,101831.32
2018-12-04T19:03:13.655Z,101835.95
2018-12-04T19:05:43.445Z,101840.41
2018-12-04T19:08:12.787Z,101839.14
2018-12-04T19:10:42.020Z,101840.22
2018-12-04T19:13:11.203Z,101841.91
2018-12-04T19:15:40.325Z,101843.91
2018-12-04T19:18:09.825Z,101849.79
2018-12-04T19:20:39.294Z,101858.57
2018-12-04T19:23:09.055Z,101858.81
2018-12-04T19:25:38.382Z,101861.52
2018-12-04T19:28:07.680Z,101866.14
2018-12-04T19:30:37.354Z,101866.57
2018-12-04T19:33:06.580Z,101869.52
2018-12-04T19:35:35.831Z,101865.97
2018-12-04T19:38:05.369Z,101881.80
2018-12-04T19:40:34.597Z,101888.03
2018-12-04T19:43:04.091Z,101890.41
2018-12-04T19:45:33.522Z,101893.11
2018-12-04T19:48:02.764Z,101890.00
2018-12-04T19:50:32.533Z,101900.67
2018-12-04T19:53:02.189Z,101892.45
2018-12-04T19:55:31.672Z,101904.00
2018-12-04T19:58:00.928Z,101915.53
2018-12-04T20:00:30.151Z,101909.42
2018-12-04T20:02:59.395Z,101916.39
2018-12-04T20:05:28.632Z,101926.59
2018-12-04T20:07:57.825Z,101928.21
2018-12-04T20:10:26.997Z,101928.10
2018-12-04T20:12:56.230Z,101943.23
2018-12-04T20:15:25.889Z,101940.84
2018-12-04T20:17:55.360Z,101947.41
2018-12-04T20:20:24.562Z,101947.33
2018-12-04T20:22:54.229Z,101956.39
2018-12-04T20:25:23.426Z,101960.16
2018-12-04T20:27:52.887Z,101971.02
2018-12-04T20:30:22.905Z,101965.28
2018-12-04T20:32:52.244Z,101973.80
2018-12-04T20:35:21.496Z,101972.59
2018-12-04T20:37:50.654Z,101972.72
2018-12-04T20:40:20.187Z,101972.72
2018-12-04T20:42:49.464Z,101974.98
2018-12-04T20:45:18.855Z,101985.45
2018-12-04T20:47:48.041Z,101992.55
2018-12-04T20:50:17.545Z,101991.94
2018-12-04T20:52:46.880Z,101993.81
2018-12-04T20:55:16.092Z,102003.92
2018-12-04T20:57:45.549Z,102008.40
2018-12-04T21:00:14.694Z,102005.57
2018-12-04T21:02:44.014Z,102008.12
2018-12-04T21:05:13.320Z,102012.85
2018-12-04T21:07:42.532Z,102014.00
2018-12-04T21:10:11.973Z,102011.31
2018-12-04T21:12:41.191Z,102011.38
2018-12-04T21:15:10.384Z,102016.68
2018-12-04T21:17:39.592Z,102015.47
2018-12-04T21:20:08.994Z,102028.45
2018-12-04T21:22:38.216Z,102027.73
2018-12-04T21:25:07.482Z,102032.31
2018-12-04T21:27:42.023Z,102037.50
2018-12-04T21:30:16.872Z,102047.19
2018-12-04T21:32:51.477Z,102039.09
2018-12-04T21:35:26.011Z,102054.50
2018-12-04T21:38:00.696Z,102056.02
2018-12-04T21:40:35.562Z,102058.23
2018-12-04T21:43:10.287Z,102064.59
2018-12-04T21:45:45.147Z,102063.87
2018-12-04T21:48:15.451Z,102072.95
2018-12-04T21:50:44.623Z,102076.41
2018-12-04T21:53:13.844Z,102076.52
2018-12-04T21:55:43.246Z,102070.14
2018-12-04T21:58:12.553Z,102076.55
2018-12-04T22:00:42.371Z,102079.89
2018-12-04T22:03:11.852Z,102084.41
2018-12-04T22:05:41.569Z,102088.66
2018-12-04T22:08:11.164Z,102090.92
2018-12-04T22:10:40.357Z,102093.39
2018-12-04T22:13:09.560Z,102101.48
2018-12-04T22:15:38.968Z,102101.67
2018-12-04T22:18:08.252Z,102108.09
2018-12-04T22:20:37.706Z,102106.61
2018-12-04T22:23:06.908Z,102113.09
2018-12-04T22:25:36.397Z,102127.41
2018-12-04T22:28:06.066Z,102117.36
2018-12-04T22:30:35.330Z,102118.02
2018-12-04T22:33:04.568Z,102119.28
2018-12-04T22:35:33.923Z,102124.83
2018-12-04T22:38:03.418Z,102125.45
2018-12-04T22:40:32.832Z,102125.10
2018-12-04T22:43:02.022Z,102132.83
2018-12-04T22:45:31.299Z,102133.06
2018-12-04T22:48:00.890Z,102137.14
2018-12-04T22:50:30.588Z,102131.30
2018-12-04T22:52:59.733Z,102136.62
2018-12-04T22:55:29.021Z,102137.60
2018-12-04T22:57:58.238Z,102132.88
2018-12-04T23:00:39.036Z,102135.53
2018-12-04T23:03:08.266Z,102126.50
2018-12-04T23:05:37.662Z,102128.00
2018-12-04T23:08:07.071Z,102130.84
2018-12-04T23:10:36.273Z,102132.09
2018-12-04T23:13:05.893Z,102133.81
2018-12-04T23:15:35.114Z,102143.05
2018-12-04T23:18:04.401Z,102145.78
2018-12-04T23:20:33.877Z,102155.56
2018-12-04T23:23:03.082Z,102149.27
2018-12-04T23:25:32.257Z,102149.15
2018-12-04T23:28:01.466Z,102147.30
2018-12-04T23:30:30.901Z,102154.86
2018-12-04T23:33:00.382Z,102156.75
2018-12-04T23:35:29.554Z,102151.69
2018-12-04T23:37:58.727Z,102152.23
2018-12-04T23:40:27.933Z,102159.72
2018-12-04T23:42:57.137Z,102162.55
2018-12-04T23:45:26.370Z,102170.02
2018-12-04T23:47:55.611Z,102163.73
2018-12-04T23:50:24.809Z,102167.16
2018-12-04T23:52:54.317Z,102170.93
2018-12-04T23:55:23.638Z,102175.27
2018-12-04T23:57:53.258Z,102175.52
